createdAt,value
2023-12-07T00:00:14.272Z,2.80
2023-12-07T00:02:41.528Z,2.80
2023-12-07T00:05:09.305Z,2.80
2023-12-07T00:07:36.612Z,2.80
2023-12-07T00:10:04.259Z,2.80
2023-12-07T00:12:31.621Z,2.70
2023-12-07T00:14:58.968Z,2.70
2023-12-07T00:17:26.277Z,2.70
2023-12-07T00:19:56.751Z,2.70
2023-12-07T00:22:26.132Z,2.70
2023-12-07T00:24:53.989Z,2.70
2023-12-07T00:27:21.353Z,2.70
2023-12-07T00:29:49.325Z,2.60
2023-12-07T00:32:16.636Z,2.60
2023-12-07T00:34:44.205Z,2.50
2023-12-07T00:37:11.661Z,2.40
2023-12-07T00:39:38.925Z,2.50
2023-12-07T00:42:06.202Z,2.30
2023-12-07T00:44:33.559Z,2.40
2023-12-07T00:47:01.212Z,2.30
2023-12-07T00:49:28.548Z,2.30
2023-12-07T00:51:55.883Z,2.30
2023-12-07T00:54:23.871Z,2.10
2023-12-07T00:56:51.149Z,2.20
2023-12-07T00:59:18.512Z,2.20
2023-12-07T01:01:45.766Z,2.20
2023-12-07T01:04:13.152Z,2.10
2023-12-07T01:06:40.441Z,2.10
2023-12-07T01:09:07.864Z,2.00
2023-12-07T01:11:35.114Z,2.10
2023-12-07T01:14:02.369Z,2.10
2023-12-07T01:16:29.702Z,2.10
2023-12-07T01:18:57.058Z,2.00
2023-12-07T01:21:24.663Z,2.00
2023-12-07T01:23:59.474Z,2.00
2023-12-07T01:26:33.939Z,1.90
2023-12-07T01:29:01.386Z,1.90
2023-12-07T01:31:28.667Z,1.80
2023-12-07T01:33:56.084Z,1.90
2023-12-07T01:36:23.537Z,1.70
2023-12-07T01:38:50.837Z,1.70
2023-12-07T01:41:18.176Z,1.60
2023-12-07T01:43:49.051Z,1.70
2023-12-07T01:46:18.013Z,1.40
2023-12-07T01:48:49.547Z,1.60
2023-12-07T01:51:19.223Z,1.50
2023-12-07T01:53:47.080Z,1.50
2023-12-07T01:56:14.568Z,1.50
2023-12-07T01:58:41.961Z,1.40
2023-12-07T02:01:10.406Z,1.40
2023-12-07T02:03:42.276Z,1.30
2023-12-07T02:06:10.077Z,1.50
2023-12-07T02:08:42.180Z,1.40
2023-12-07T02:11:10.655Z,1.30
2023-12-07T02:13:42.648Z,1.40
2023-12-07T02:16:21.623Z,1.30
2023-12-07T02:19:01.459Z,1.30
2023-12-07T02:21:39.110Z,1.30
2023-12-07T02:24:08.082Z,1.40
2023-12-07T02:26:51.567Z,1.30
2023-12-07T02:29:18.948Z,1.20
2023-12-07T02:31:46.734Z,1.20
2023-12-07T02:34:14.218Z,1.20
2023-12-07T02:36:43.375Z,1.10
2023-12-07T02:39:13.548Z,1.10
2023-12-07T02:41:42.344Z,1.20
2023-12-07T02:44:10.058Z,1.10
2023-12-07T02:46:38.461Z,1.10
2023-12-07T02:49:05.821Z,1.10
2023-12-07T02:51:33.407Z,1.00
2023-12-07T02:54:00.723Z,1.00
2023-12-07T02:56:27.975Z,1.00
2023-12-07T02:58:55.222Z,0.90
2023-12-07T03:01:22.598Z,1.00
2023-12-07T03:03:50.006Z,1.00
2023-12-07T03:06:18.164Z,0.90
2023-12-07T03:08:45.500Z,0.90
2023-12-07T03:11:12.970Z,0.80
2023-12-07T03:13:40.386Z,0.80
2023-12-07T03:16:11.130Z,0.90
2023-12-07T03:18:39.138Z,0.80
2023-12-07T03:21:06.464Z,0.90
2023-12-07T03:23:33.838Z,0.90
2023-12-07T03:26:01.251Z,0.90
2023-12-07T03:28:28.589Z,0.90
2023-12-07T03:30:55.997Z,0.90
2023-12-07T03:33:23.377Z,0.90
2023-12-07T03:35:50.701Z,0.90
2023-12-07T03:38:17.992Z,1.00
2023-12-07T03:40:48.840Z,0.90
2023-12-07T03:43:20.286Z,0.90
2023-12-07T03:45:47.579Z,1.00
2023-12-07T03:48:14.944Z,0.90
2023-12-07T03:50:42.301Z,0.90
2023-12-07T03:53:10.746Z,1.00
2023-12-07T03:55:38.180Z,1.00
2023-12-07T03:58:06.133Z,1.00
2023-12-07T04:00:33.916Z,1.00
2023-12-07T04:03:01.307Z,1.00
2023-12-07T04:05:28.678Z,1.00
2023-12-07T04:07:56.004Z,0.90
2023-12-07T04:10:23.312Z,1.00
2023-12-07T04:12:51.023Z,1.10
2023-12-07T04:15:19.649Z,1.10
2023-12-07T04:17:47.950Z,1.10
2023-12-07T04:20:15.313Z,1.10
2023-12-07T04:22:42.825Z,1.10
2023-12-07T04:25:10.556Z,1.10
2023-12-07T04:27:37.920Z,1.10
2023-12-07T04:30:05.724Z,1.00
2023-12-07T04:32:33.049Z,1.00
2023-12-07T04:35:00.442Z,0.90
2023-12-07T04:37:27.750Z,0.90
2023-12-07T04:39:55.015Z,0.80
2023-12-07T04:42:22.549Z,0.70
2023-12-07T04:44:49.943Z,0.60
2023-12-07T04:47:17.346Z,0.70
2023-12-07T04:49:44.623Z,0.60
2023-12-07T04:52:11.990Z,0.50
2023-12-07T04:54:39.445Z,0.60
2023-12-07T04:57:07.681Z,0.60
2023-12-07T04:59:37.964Z,0.70
2023-12-07T05:02:06.179Z,0.60
2023-12-07T05:04:34.436Z,0.70
2023-12-07T05:07:04.611Z,0.60
2023-12-07T05:09:32.283Z,0.60
2023-12-07T05:11:59.615Z,0.60
2023-12-07T05:14:27.229Z,0.60
2023-12-07T05:16:56.622Z,0.60
2023-12-07T05:19:27.080Z,0.60
2023-12-07T05:21:54.596Z,0.50
2023-12-07T05:24:22.034Z,0.50
2023-12-07T05:26:49.999Z,0.50
2023-12-07T05:29:17.257Z,0.40
2023-12-07T05:31:44.840Z,0.40
2023-12-07T05:34:12.322Z,0.40
2023-12-07T05:36:39.601Z,0.30
2023-12-07T05:39:08.310Z,0.40
2023-12-07T05:41:35.680Z,0.40
2023-12-07T05:44:04.784Z,0.40
2023-12-07T05:46:32.666Z,0.30
2023-12-07T05:49:00.172Z,0.40
2023-12-07T05:51:27.670Z,0.20
2023-12-07T05:53:54.958Z,0.20
2023-12-07T05:56:22.580Z,0.20
2023-12-07T05:58:50.007Z,0.10
2023-12-07T06:01:20.599Z,0.10
2023-12-07T06:03:47.999Z,0.00
2023-12-07T06:06:15.249Z,0.00
2023-12-07T06:08:42.876Z,-0.10
2023-12-07T06:11:10.161Z,-0.10
2023-12-07T06:13:38.616Z,-0.10
2023-12-07T06:16:06.169Z,-0.20
2023-12-07T06:18:33.634Z,-0.30
2023-12-07T06:21:00.964Z,-0.40
2023-12-07T06:23:28.257Z,-0.40
2023-12-07T06:25:55.497Z,-0.40
2023-12-07T06:28:22.800Z,-0.40
2023-12-07T06:30:50.170Z,-0.50
2023-12-07T06:33:17.561Z,-0.50
2023-12-07T06:35:44.897Z,-0.60
2023-12-07T06:38:12.168Z,-0.60
2023-12-07T06:40:39.521Z,-0.60
2023-12-07T06:43:06.808Z,-0.60
2023-12-07T06:45:34.605Z,-0.60
2023-12-07T06:48:03.028Z,-0.60
2023-12-07T06:50:30.381Z,-0.70
2023-12-07T06:52:57.682Z,-0.70
2023-12-07T06:55:25.204Z,-0.80
2023-12-07T06:57:52.470Z,-0.80
2023-12-07T07:00:21.454Z,-0.80
2023-12-07T07:02:48.906Z,-0.80
2023-12-07T07:05:16.175Z,-0.70
2023-12-07T07:07:43.570Z,-0.70
2023-12-07T07:10:12.252Z,-0.70
2023-12-07T07:12:39.822Z,-0.70
2023-12-07T07:15:09.309Z,-0.70
2023-12-07T07:17:36.769Z,-0.70
2023-12-07T07:20:04.411Z,-0.70
2023-12-07T07:22:32.006Z,-0.70
2023-12-07T07:24:59.484Z,-0.70
2023-12-07T07:27:27.153Z,-0.60
2023-12-07T07:29:54.714Z,-0.60
2023-12-07T07:32:21.961Z,-0.50
2023-12-07T07:34:49.304Z,-0.50
2023-12-07T07:37:16.685Z,-0.50
2023-12-07T07:39:43.944Z,-0.50
2023-12-07T07:42:11.259Z,-0.30
2023-12-07T07:44:38.543Z,-0.30
2023-12-07T07:47:05.833Z,-0.30
2023-12-07T07:49:33.161Z,-0.30
2023-12-07T07:52:00.802Z,-0.30
2023-12-07T07:54:28.273Z,-0.10
2023-12-07T07:56:55.555Z,-0.10
2023-12-07T07:59:22.863Z,-0.10
2023-12-07T08:01:50.586Z,0.00
2023-12-07T08:04:18.292Z,0.10
2023-12-07T08:06:45.634Z,0.10
2023-12-07T08:09:13.198Z,0.20
2023-12-07T08:11:40.600Z,0.30
2023-12-07T08:14:07.933Z,0.40
2023-12-07T08:16:35.363Z,0.50
2023-12-07T08:19:02.793Z,0.50
2023-12-07T08:21:31.549Z,0.70
2023-12-07T08:23:59.096Z,0.70
2023-12-07T08:26:28.876Z,0.80
2023-12-07T08:28:57.762Z,0.80
2023-12-07T08:31:25.612Z,1.00
2023-12-07T08:33:53.351Z,1.00
2023-12-07T08:36:21.012Z,1.10
2023-12-07T08:38:48.405Z,1.20
2023-12-07T08:41:15.977Z,1.30
2023-12-07T08:43:44.362Z,1.30
2023-12-07T08:46:11.735Z,1.40
2023-12-07T08:48:42.501Z,1.40
2023-12-07T08:51:11.226Z,1.50
2023-12-07T08:53:39.862Z,1.70
2023-12-07T08:56:10.359Z,1.70
2023-12-07T08:58:37.679Z,1.80
2023-12-07T09:01:19.750Z,1.80
2023-12-07T09:03:53.487Z,1.90
2023-12-07T09:06:20.885Z,2.00
2023-12-07T09:08:48.252Z,2.00
2023-12-07T09:11:15.559Z,2.00
2023-12-07T09:13:42.871Z,2.10
2023-12-07T09:16:10.413Z,2.10
2023-12-07T09:18:37.818Z,2.20
2023-12-07T09:21:05.469Z,2.20
2023-12-07T09:23:32.919Z,2.30
2023-12-07T09:26:00.232Z,2.40
2023-12-07T09:28:27.608Z,2.50
2023-12-07T09:30:55.492Z,2.50
2023-12-07T09:33:22.863Z,2.60
2023-12-07T09:35:50.278Z,2.70
2023-12-07T09:38:17.782Z,2.80
2023-12-07T09:40:47.217Z,2.90
2023-12-07T09:43:14.819Z,3.00
2023-12-07T09:45:42.153Z,3.00
2023-12-07T09:48:09.883Z,3.00
2023-12-07T09:50:38.982Z,3.10
2023-12-07T09:53:09.235Z,3.10
2023-12-07T09:55:38.327Z,3.10
2023-12-07T09:58:08.865Z,3.30
2023-12-07T10:00:38.171Z,3.30
2023-12-07T10:03:10.522Z,3.40
2023-12-07T10:05:59.907Z,3.50
2023-12-07T10:08:32.188Z,3.60
2023-12-07T10:11:19.478Z,3.60
2023-12-07T10:13:47.118Z,3.70
2023-12-07T10:16:17.259Z,3.70
2023-12-07T10:18:45.695Z,3.80
2023-12-07T10:21:14.591Z,3.80
2023-12-07T10:23:45.054Z,3.80
2023-12-07T10:26:13.837Z,3.80
2023-12-07T10:28:41.336Z,3.80
2023-12-07T10:31:12.110Z,3.80
2023-12-07T10:33:39.839Z,3.90
2023-12-07T10:36:08.131Z,3.80
2023-12-07T10:38:35.646Z,3.80
2023-12-07T10:41:07.290Z,3.90
2023-12-07T10:43:42.138Z,3.90
2023-12-07T10:46:10.497Z,3.90
2023-12-07T10:48:39.231Z,3.90
2023-12-07T10:51:12.396Z,4.00
2023-12-07T10:53:45.176Z,4.00
2023-12-07T10:56:17.318Z,4.00
2023-12-07T10:58:46.322Z,4.00
2023-12-07T11:01:16.113Z,4.00
2023-12-07T11:03:44.987Z,4.10
2023-12-07T11:06:12.894Z,4.10
2023-12-07T11:08:45.537Z,4.10
2023-12-07T11:11:45.642Z,4.10
2023-12-07T11:14:17.503Z,4.20
2023-12-07T11:16:47.211Z,4.20
2023-12-07T11:19:41.184Z,4.20
2023-12-07T11:22:14.393Z,4.10
2023-12-07T11:25:01.157Z,4.10
2023-12-07T11:27:32.741Z,4.20
2023-12-07T11:30:03.966Z,4.10
2023-12-07T11:32:31.765Z,4.10
2023-12-07T11:35:08.128Z,4.10
2023-12-07T11:38:04.279Z,4.20
2023-12-07T11:40:33.296Z,4.30
2023-12-07T11:43:01.995Z,4.30
2023-12-07T11:45:58.406Z,4.40
2023-12-07T11:48:26.110Z,4.50
2023-12-07T11:51:01.591Z,4.40
2023-12-07T11:53:31.560Z,4.40
2023-12-07T11:56:03.881Z,4.40
2023-12-07T11:58:35.870Z,4.50
2023-12-07T12:01:07.171Z,4.40
2023-12-07T12:03:35.066Z,4.40
2023-12-07T12:06:06.162Z,4.50
2023-12-07T12:08:33.539Z,4.50
2023-12-07T12:11:01.605Z,4.50
2023-12-07T12:13:39.357Z,4.50
2023-12-07T12:16:07.861Z,4.50
2023-12-07T12:18:36.463Z,4.40
2023-12-07T12:21:04.642Z,4.50
2023-12-07T12:23:31.973Z,4.50
2023-12-07T12:25:59.717Z,4.50
2023-12-07T12:28:27.311Z,4.50
2023-12-07T12:30:56.017Z,4.60
2023-12-07T12:33:24.459Z,4.40
2023-12-07T12:36:06.532Z,4.40
2023-12-07T12:38:41.322Z,4.30
2023-12-07T12:41:12.552Z,4.30
2023-12-07T12:43:40.359Z,4.40
2023-12-07T12:46:07.968Z,4.40
2023-12-07T12:48:35.738Z,4.40
2023-12-07T12:51:14.936Z,4.30
2023-12-07T12:53:50.407Z,4.40
2023-12-07T12:56:21.642Z,4.40
2023-12-07T12:58:53.437Z,4.30
2023-12-07T13:01:22.665Z,4.40
2023-12-07T13:03:50.488Z,4.30
2023-12-07T13:06:18.525Z,4.30
2023-12-07T13:08:47.167Z,4.30
2023-12-07T13:11:18.914Z,4.20
2023-12-07T13:13:50.372Z,4.30
2023-12-07T13:16:18.278Z,4.30
2023-12-07T13:18:45.782Z,4.20
2023-12-07T13:21:14.127Z,4.20
2023-12-07T13:23:41.436Z,4.20
2023-12-07T13:26:08.755Z,4.20
2023-12-07T13:28:36.097Z,4.20
2023-12-07T13:31:03.654Z,4.30
2023-12-07T13:33:36.508Z,4.20
2023-12-07T13:36:10.119Z,4.20
2023-12-07T13:38:37.439Z,4.10
2023-12-07T13:41:04.956Z,4.10
2023-12-07T13:43:34.138Z,4.10
2023-12-07T13:46:02.489Z,4.00
2023-12-07T13:48:29.780Z,4.00
2023-12-07T13:50:57.060Z,4.00
2023-12-07T13:53:24.322Z,3.90
2023-12-07T13:55:52.117Z,4.00
2023-12-07T13:58:19.561Z,3.90
2023-12-07T14:00:47.522Z,3.90
2023-12-07T14:03:14.940Z,3.90
2023-12-07T14:05:42.723Z,3.90
2023-12-07T14:08:10.414Z,3.90
2023-12-07T14:10:38.050Z,3.80
2023-12-07T14:13:06.885Z,3.70
2023-12-07T14:15:44.264Z,3.70
2023-12-07T14:18:13.561Z,3.60
2023-12-07T14:20:55.516Z,3.60
2023-12-07T14:23:31.240Z,3.60
2023-12-07T14:26:02.869Z,3.60
2023-12-07T14:28:31.699Z,3.50
2023-12-07T14:31:00.347Z,3.40
2023-12-07T14:33:28.220Z,3.40
2023-12-07T14:35:56.164Z,3.40
2023-12-07T14:38:24.443Z,3.20
2023-12-07T14:40:52.178Z,3.10
2023-12-07T14:43:22.487Z,3.10
2023-12-07T14:45:50.084Z,3.00
2023-12-07T14:48:17.881Z,2.90
2023-12-07T14:50:45.552Z,2.90
2023-12-07T14:53:13.038Z,2.90
2023-12-07T14:55:40.699Z,2.80
2023-12-07T14:58:08.016Z,2.70
2023-12-07T15:00:35.354Z,2.70
2023-12-07T15:03:02.808Z,2.70
2023-12-07T15:05:30.212Z,2.60
2023-12-07T15:07:57.724Z,2.50
2023-12-07T15:10:25.018Z,2.50
2023-12-07T15:12:52.653Z,2.40
2023-12-07T15:15:20.157Z,2.40
2023-12-07T15:17:48.730Z,2.30
2023-12-07T15:20:16.437Z,2.20
2023-12-07T15:22:45.442Z,2.10
2023-12-07T15:25:14.700Z,2.10
2023-12-07T15:27:42.930Z,2.00
2023-12-07T15:30:11.329Z,2.00
2023-12-07T15:32:38.955Z,1.90
2023-12-07T15:35:07.075Z,1.70
2023-12-07T15:37:34.464Z,1.80
2023-12-07T15:40:01.752Z,1.70
2023-12-07T15:42:29.081Z,1.70
2023-12-07T15:44:56.367Z,1.60
2023-12-07T15:47:24.144Z,1.60
2023-12-07T15:49:51.574Z,1.60
2023-12-07T15:52:18.856Z,1.40
2023-12-07T15:54:46.134Z,1.40
2023-12-07T15:57:13.683Z,1.40
2023-12-07T15:59:42.163Z,1.30
2023-12-07T16:02:10.599Z,1.20
2023-12-07T16:04:39.611Z,1.20
2023-12-07T16:07:09.733Z,1.10
2023-12-07T16:09:39.841Z,1.00
2023-12-07T16:12:08.607Z,1.00
2023-12-07T16:14:38.339Z,0.90
2023-12-07T16:17:06.648Z,0.80
2023-12-07T16:19:34.131Z,0.70
2023-12-07T16:22:01.736Z,0.60
2023-12-07T16:24:29.086Z,0.60
2023-12-07T16:26:57.190Z,0.50
2023-12-07T16:29:24.478Z,0.50
2023-12-07T16:31:51.856Z,0.40
2023-12-07T16:34:19.897Z,0.40
2023-12-07T16:36:47.832Z,0.40
2023-12-07T16:39:16.105Z,0.30
2023-12-07T16:41:51.701Z,0.30
2023-12-07T16:44:22.942Z,0.20
2023-12-07T16:46:50.421Z,0.20
2023-12-07T16:49:17.867Z,0.10
2023-12-07T16:51:45.262Z,0.10
2023-12-07T16:54:12.533Z,0.20
2023-12-07T16:56:39.991Z,0.10
2023-12-07T16:59:07.378Z,0.10
2023-12-07T17:01:34.737Z,0.20
2023-12-07T17:04:02.455Z,0.10
2023-12-07T17:06:30.280Z,0.10
2023-12-07T17:11:28.934Z,0.00
2023-12-07T17:13:57.156Z,0.00
2023-12-07T17:16:24.775Z,-0.10
2023-12-07T17:18:52.940Z,-0.10
2023-12-07T17:21:20.373Z,-0.20
2023-12-07T17:23:47.830Z,-0.20
2023-12-07T17:26:15.544Z,-0.20
2023-12-07T17:28:42.864Z,-0.30
2023-12-07T17:31:10.656Z,-0.40
2023-12-07T17:33:38.184Z,-0.40
2023-12-07T17:36:05.880Z,-0.50
2023-12-07T17:38:33.304Z,-0.50
2023-12-07T17:41:00.595Z,-0.60
2023-12-07T17:43:27.877Z,-0.50
2023-12-07T17:45:57.089Z,-0.60
2023-12-07T17:48:25.409Z,-0.60
2023-12-07T17:50:52.908Z,-0.60
2023-12-07T17:53:20.351Z,-0.60
2023-12-07T17:55:47.656Z,-0.60
2023-12-07T17:58:14.930Z,-0.50
2023-12-07T18:00:42.295Z,-0.60
2023-12-07T18:03:09.714Z,-0.50
2023-12-07T18:05:37.264Z,-0.50
2023-12-07T18:08:06.060Z,-0.50
2023-12-07T18:10:33.388Z,-0.60
2023-12-07T18:13:01.928Z,-0.60
2023-12-07T18:15:29.182Z,-0.60
2023-12-07T18:17:56.662Z,-0.60
2023-12-07T18:20:24.023Z,-0.60
2023-12-07T18:22:51.338Z,-0.60
2023-12-07T18:25:18.592Z,-0.70
2023-12-07T18:27:48.060Z,-0.70
2023-12-07T18:30:15.539Z,-0.70
2023-12-07T18:32:42.851Z,-0.70
2023-12-07T18:35:10.149Z,-0.70
2023-12-07T18:37:38.376Z,-0.70
2023-12-07T18:40:07.033Z,-0.70
2023-12-07T18:42:34.305Z,-0.80
2023-12-07T18:45:02.998Z,-0.80
2023-12-07T18:47:30.451Z,-0.60
2023-12-07T18:49:57.822Z,-0.80
2023-12-07T18:52:26.966Z,-0.90
2023-12-07T18:54:54.267Z,-0.90
2023-12-07T18:57:21.628Z,-0.90
2023-12-07T18:59:48.974Z,-1.00
2023-12-07T19:02:16.297Z,-0.90
2023-12-07T19:04:44.360Z,-1.00
2023-12-07T19:07:11.848Z,-1.00
2023-12-07T19:09:39.371Z,-1.10
2023-12-07T19:12:06.874Z,-1.10
2023-12-07T19:14:34.633Z,-1.10
2023-12-07T19:17:02.044Z,-1.10
2023-12-07T19:19:29.633Z,-1.10
2023-12-07T19:21:57.040Z,-1.10
2023-12-07T19:24:24.348Z,-1.10
2023-12-07T19:26:51.688Z,-1.10
2023-12-07T19:29:19.236Z,-1.10
2023-12-07T19:31:46.570Z,-1.20
2023-12-07T19:34:15.942Z,-1.20
2023-12-07T19:36:43.756Z,-1.20
2023-12-07T19:39:18.241Z,-1.20
2023-12-07T19:41:45.932Z,-1.20
2023-12-07T19:44:13.700Z,-1.20
2023-12-07T19:46:41.290Z,-1.30
2023-12-07T19:49:09.498Z,-1.30
2023-12-07T19:51:37.780Z,-1.30
2023-12-07T19:54:05.366Z,-1.30
2023-12-07T19:56:34.776Z,-1.30
2023-12-07T19:59:02.112Z,-1.30
2023-12-07T20:01:29.881Z,-1.30
2023-12-07T20:03:57.278Z,-1.40
2023-12-07T20:06:33.641Z,-1.40
2023-12-07T20:09:04.534Z,-1.50
2023-12-07T20:11:33.305Z,-1.50
2023-12-07T20:14:00.749Z,-1.60
2023-12-07T20:16:28.049Z,-1.60
2023-12-07T20:18:55.588Z,-1.60
2023-12-07T20:21:23.086Z,-1.70
2023-12-07T20:23:50.467Z,-1.50
2023-12-07T20:26:17.850Z,-1.80
2023-12-07T20:28:47.116Z,-1.80
2023-12-07T20:31:15.369Z,-1.90
2023-12-07T20:33:44.524Z,-1.90
2023-12-07T20:36:13.230Z,-2.00
2023-12-07T20:38:41.009Z,-1.90
2023-12-07T20:41:08.430Z,-1.90
2023-12-07T20:43:35.772Z,-1.90
2023-12-07T20:46:04.268Z,-1.90
2023-12-07T20:48:32.028Z,-1.90
2023-12-07T20:51:00.419Z,-1.90
2023-12-07T20:53:27.840Z,-1.90
2023-12-07T20:55:56.184Z,-1.90
2023-12-07T20:58:23.648Z,-2.00
2023-12-07T21:00:51.041Z,-2.10
2023-12-07T21:03:18.465Z,-2.10
2023-12-07T21:05:45.896Z,-2.10
2023-12-07T21:08:13.598Z,-2.20
2023-12-07T21:10:40.946Z,-2.20
2023-12-07T21:13:08.235Z,-2.20
2023-12-07T21:15:36.243Z,-2.20
2023-12-07T21:18:04.206Z,-2.30
2023-12-07T21:20:31.758Z,-2.30
2023-12-07T21:22:59.129Z,-2.40
2023-12-07T21:25:26.638Z,-2.40
2023-12-07T21:27:54.013Z,-2.50
2023-12-07T21:30:21.336Z,-2.50
2023-12-07T21:32:48.820Z,-2.50
2023-12-07T21:35:16.800Z,-2.60
2023-12-07T21:37:44.127Z,-2.70
2023-12-07T21:40:12.980Z,-2.70
2023-12-07T21:42:40.265Z,-2.80
2023-12-07T21:45:08.610Z,-2.80
2023-12-07T21:47:36.013Z,-2.80
2023-12-07T21:50:04.401Z,-2.90
2023-12-07T21:52:32.067Z,-2.90
2023-12-07T21:54:59.326Z,-2.90
2023-12-07T21:57:27.339Z,-2.90
2023-12-07T21:59:54.866Z,-2.90
2023-12-07T22:02:22.261Z,-2.80
2023-12-07T22:04:49.843Z,-2.70
2023-12-07T22:07:17.538Z,-2.70
2023-12-07T22:09:44.863Z,-2.70
2023-12-07T22:12:12.210Z,-2.70
2023-12-07T22:14:39.791Z,-2.80
2023-12-07T22:17:07.540Z,-2.80
2023-12-07T22:19:35.081Z,-2.90
2023-12-07T22:22:02.766Z,-2.90
2023-12-07T22:24:30.064Z,-2.90
2023-12-07T22:26:57.491Z,-2.80
2023-12-07T22:29:27.188Z,-2.80
2023-12-07T22:31:55.309Z,-2.90
2023-12-07T22:34:23.699Z,-2.90
2023-12-07T22:36:51.092Z,-2.90
2023-12-07T22:39:18.352Z,-2.90
2023-12-07T22:41:45.846Z,-2.90
2023-12-07T22:44:16.476Z,-2.90
2023-12-07T22:46:47.168Z,-2.90
2023-12-07T22:49:14.878Z,-2.90
2023-12-07T22:51:42.376Z,-2.90
2023-12-07T22:54:09.725Z,-2.90
2023-12-07T22:56:37.162Z,-2.90
2023-12-07T22:59:04.461Z,-2.90
2023-12-07T23:01:31.761Z,-2.90
2023-12-07T23:04:01.597Z,-2.90
2023-12-07T23:06:29.067Z,-3.00
2023-12-07T23:08:56.441Z,-3.00
2023-12-07T23:11:23.813Z,-3.00
2023-12-07T23:13:51.154Z,-3.10
2023-12-07T23:16:21.105Z,-3.10
2023-12-07T23:18:48.470Z,-3.10
2023-12-07T23:21:15.880Z,-3.10
2023-12-07T23:23:43.394Z,-3.20
2023-12-07T23:26:11.451Z,-3.20
2023-12-07T23:28:39.313Z,-3.20
2023-12-07T23:31:06.796Z,-3.20
2023-12-07T23:33:34.441Z,-3.20
2023-12-07T23:36:01.917Z,-3.20
2023-12-07T23:38:29.456Z,-3.20
2023-12-07T23:40:56.778Z,-3.20
2023-12-07T23:43:24.093Z,-3.10
2023-12-07T23:45:51.394Z,-3.30
2023-12-07T23:48:18.872Z,-3.30
2023-12-07T23:50:46.483Z,-3.40
2023-12-07T23:53:13.801Z,-3.40
2023-12-07T23:55:41.132Z,-3.40
2023-12-07T23:58:08.425Z,-3.30
